sensor_id;sensor_type;location;lat;lon;timestamp;temperature;humidity
49413;DHT22;35493;50.276;9.372;2023-03-05T00:01:09;4.80;85.90
49413;DHT22;35493;50.276;9.372;2023-03-05T00:03:37;4.70;85.90
49413;DHT22;35493;50.276;9.372;2023-03-05T00:06:06;4.80;85.90
49413;DHT22;35493;50.276;9.372;2023-03-05T00:08:33;4.70;86.00
49413;DHT22;35493;50.276;9.372;2023-03-05T00:11:02;4.80;85.90
49413;DHT22;35493;50.276;9.372;2023-03-05T00:13:37;4.80;85.90
49413;DHT22;35493;50.276;9.372;2023-03-05T00:16:12;4.70;85.90
49413;DHT22;35493;50.276;9.372;2023-03-05T00:18:46;4.80;85.90
49413;DHT22;35493;50.276;9.372;2023-03-05T00:21:23;4.70;85.90
49413;DHT22;35493;50.276;9.372;2023-03-05T00:23:58;4.70;85.90
49413;DHT22;35493;50.276;9.372;2023-03-05T00:26:35;4.70;86.00
49413;DHT22;35493;50.276;9.372;2023-03-05T00:29:11;4.70;86.00
49413;DHT22;35493;50.276;9.372;2023-03-05T00:31:47;4.70;86.10
49413;DHT22;35493;50.276;9.372;2023-03-05T00:34:21;4.60;86.20
49413;DHT22;35493;50.276;9.372;2023-03-05T00:36:58;4.60;86.20
49413;DHT22;35493;50.276;9.372;2023-03-05T00:39:32;4.70;86.10
49413;DHT22;35493;50.276;9.372;2023-03-05T00:42:05;4.70;86.00
49413;DHT22;35493;50.276;9.372;2023-03-05T00:44:39;4.70;86.10
49413;DHT22;35493;50.276;9.372;2023-03-05T00:47:12;4.70;86.00
49413;DHT22;35493;50.276;9.372;2023-03-05T00:49:48;4.60;86.10
49413;DHT22;35493;50.276;9.372;2023-03-05T00:52:30;4.60;86.20
49413;DHT22;35493;50.276;9.372;2023-03-05T00:55:03;4.60;86.30
49413;DHT22;35493;50.276;9.372;2023-03-05T00:57:37;4.60;86.30
49413;DHT22;35493;50.276;9.372;2023-03-05T01:00:11;4.60;86.40
49413;DHT22;35493;50.276;9.372;2023-03-05T01:02:45;4.60;86.30
49413;DHT22;35493;50.276;9.372;2023-03-05T01:05:18;4.60;86.30
49413;DHT22;35493;50.276;9.372;2023-03-05T01:07:54;4.60;86.20
49413;DHT22;35493;50.276;9.372;2023-03-05T01:10:28;4.60;86.20
49413;DHT22;35493;50.276;9.372;2023-03-05T01:13:02;4.60;86.10
49413;DHT22;35493;50.276;9.372;2023-03-05T01:15:36;4.60;86.20
49413;DHT22;35493;50.276;9.372;2023-03-05T01:18:09;4.60;86.30
49413;DHT22;35493;50.276;9.372;2023-03-05T01:20:42;4.60;86.30
49413;DHT22;35493;50.276;9.372;2023-03-05T01:23:16;4.50;86.40
49413;DHT22;35493;50.276;9.372;2023-03-05T01:25:52;4.50;86.30
49413;DHT22;35493;50.276;9.372;2023-03-05T01:28:26;4.50;86.40
49413;DHT22;35493;50.276;9.372;2023-03-05T01:30:53;4.50;86.50
49413;DHT22;35493;50.276;9.372;2023-03-05T01:33:27;4.50;86.50
49413;DHT22;35493;50.276;9.372;2023-03-05T01:36:00;4.50;86.50
49413;DHT22;35493;50.276;9.372;2023-03-05T01:38:34;4.50;86.50
49413;DHT22;35493;50.276;9.372;2023-03-05T01:41:09;4.50;86.40
49413;DHT22;35493;50.276;9.372;2023-03-05T01:43:43;4.50;86.30
49413;DHT22;35493;50.276;9.372;2023-03-05T01:46:29;4.50;86.20
49413;DHT22;35493;50.276;9.372;2023-03-05T01:49:11;4.50;86.30
49413;DHT22;35493;50.276;9.372;2023-03-05T01:52:08;4.50;85.70
49413;DHT22;35493;50.276;9.372;2023-03-05T01:54:46;4.60;85.20
49413;DHT22;35493;50.276;9.372;2023-03-05T01:57:23;4.60;85.00
49413;DHT22;35493;50.276;9.372;2023-03-05T01:59:59;4.60;84.90
49413;DHT22;35493;50.276;9.372;2023-03-05T02:02:39;4.60;84.80
49413;DHT22;35493;50.276;9.372;2023-03-05T02:05:17;4.60;84.90
49413;DHT22;35493;50.276;9.372;2023-03-05T02:07:51;4.60;84.90
49413;DHT22;35493;50.276;9.372;2023-03-05T02:10:29;4.60;85.00
49413;DHT22;35493;50.276;9.372;2023-03-05T02:13:05;4.60;85.10
49413;DHT22;35493;50.276;9.372;2023-03-05T02:15:39;4.60;85.10
49413;DHT22;35493;50.276;9.372;2023-03-05T02:18:13;4.50;85.10
49413;DHT22;35493;50.276;9.372;2023-03-05T02:20:49;4.60;85.10
49413;DHT22;35493;50.276;9.372;2023-03-05T02:23:33;4.50;85.20
49413;DHT22;35493;50.276;9.372;2023-03-05T02:26:09;4.50;85.30
49413;DHT22;35493;50.276;9.372;2023-03-05T02:28:46;4.50;85.30
49413;DHT22;35493;50.276;9.372;2023-03-05T02:31:22;4.50;85.40
49413;DHT22;35493;50.276;9.372;2023-03-05T02:33:56;4.50;85.50
49413;DHT22;35493;50.276;9.372;2023-03-05T02:36:30;4.50;85.60
49413;DHT22;35493;50.276;9.372;2023-03-05T02:39:05;4.40;85.60
49413;DHT22;35493;50.276;9.372;2023-03-05T02:41:40;4.50;85.60
49413;DHT22;35493;50.276;9.372;2023-03-05T02:44:14;4.50;85.80
49413;DHT22;35493;50.276;9.372;2023-03-05T02:46:47;4.40;85.90
49413;DHT22;35493;50.276;9.372;2023-03-05T02:49:21;4.40;86.00
49413;DHT22;35493;50.276;9.372;2023-03-05T02:51:54;4.40;85.90
49413;DHT22;35493;50.276;9.372;2023-03-05T02:54:28;4.40;85.90
49413;DHT22;35493;50.276;9.372;2023-03-05T02:57:02;4.40;86.00
49413;DHT22;35493;50.276;9.372;2023-03-05T02:59:36;4.40;85.90
49413;DHT22;35493;50.276;9.372;2023-03-05T03:02:09;4.40;85.90
49413;DHT22;35493;50.276;9.372;2023-03-05T03:04:42;4.40;86.00
49413;DHT22;35493;50.276;9.372;2023-03-05T03:07:16;4.40;85.90
49413;DHT22;35493;50.276;9.372;2023-03-05T03:09:50;4.40;85.90
49413;DHT22;35493;50.276;9.372;2023-03-05T03:12:24;4.40;86.00
49413;DHT22;35493;50.276;9.372;2023-03-05T03:14:59;4.40;86.10
49413;DHT22;35493;50.276;9.372;2023-03-05T03:17:34;4.30;86.30
49413;DHT22;35493;50.276;9.372;2023-03-05T03:20:09;4.30;86.30
49413;DHT22;35493;50.276;9.372;2023-03-05T03:22:45;4.30;86.40
49413;DHT22;35493;50.276;9.372;2023-03-05T03:25:27;4.30;86.50
49413;DHT22;35493;50.276;9.372;2023-03-05T03:28:01;4.30;86.40
49413;DHT22;35493;50.276;9.372;2023-03-05T03:30:35;4.30;86.40
49413;DHT22;35493;50.276;9.372;2023-03-05T03:33:08;4.20;86.40
49413;DHT22;35493;50.276;9.372;2023-03-05T03:35:41;4.20;86.50
49413;DHT22;35493;50.276;9.372;2023-03-05T03:38:14;4.20;86.40
49413;DHT22;35493;50.276;9.372;2023-03-05T03:40:49;4.30;86.40
49413;DHT22;35493;50.276;9.372;2023-03-05T03:43:23;4.20;86.40
49413;DHT22;35493;50.276;9.372;2023-03-05T03:45:56;4.20;86.40
49413;DHT22;35493;50.276;9.372;2023-03-05T03:48:29;4.20;86.30
49413;DHT22;35493;50.276;9.372;2023-03-05T03:51:05;4.20;86.30
49413;DHT22;35493;50.276;9.372;2023-03-05T03:53:39;4.20;86.30
49413;DHT22;35493;50.276;9.372;2023-03-05T03:56:13;4.20;86.40
49413;DHT22;35493;50.276;9.372;2023-03-05T03:58:48;4.20;86.20
49413;DHT22;35493;50.276;9.372;2023-03-05T04:01:23;4.20;86.30
49413;DHT22;35493;50.276;9.372;2023-03-05T04:03:56;4.20;86.20
49413;DHT22;35493;50.276;9.372;2023-03-05T04:06:29;4.20;86.20
49413;DHT22;35493;50.276;9.372;2023-03-05T04:09:09;4.20;86.10
49413;DHT22;35493;50.276;9.372;2023-03-05T04:11:43;4.20;86.10
49413;DHT22;35493;50.276;9.372;2023-03-05T04:14:17;4.20;86.20
49413;DHT22;35493;50.276;9.372;2023-03-05T04:16:50;4.20;86.00
49413;DHT22;35493;50.276;9.372;2023-03-05T04:19:23;4.20;86.00
49413;DHT22;35493;50.276;9.372;2023-03-05T04:21:56;4.20;86.10
49413;DHT22;35493;50.276;9.372;2023-03-05T04:24:30;4.20;86.10
49413;DHT22;35493;50.276;9.372;2023-03-05T04:27:04;4.20;86.10
49413;DHT22;35493;50.276;9.372;2023-03-05T04:29:38;4.20;85.80
49413;DHT22;35493;50.276;9.372;2023-03-05T04:32:11;4.30;84.90
49413;DHT22;35493;50.276;9.372;2023-03-05T04:34:44;4.30;83.50
49413;DHT22;35493;50.276;9.372;2023-03-05T04:37:17;4.30;83.00
49413;DHT22;35493;50.276;9.372;2023-03-05T04:39:50;4.30;82.50
49413;DHT22;35493;50.276;9.372;2023-03-05T04:42:24;4.30;81.90
49413;DHT22;35493;50.276;9.372;2023-03-05T04:44:58;4.30;81.30
49413;DHT22;35493;50.276;9.372;2023-03-05T04:47:31;4.30;80.60
49413;DHT22;35493;50.276;9.372;2023-03-05T04:50:06;4.30;79.70
49413;DHT22;35493;50.276;9.372;2023-03-05T04:52:41;4.30;79.70
49413;DHT22;35493;50.276;9.372;2023-03-05T04:55:15;4.30;79.90
49413;DHT22;35493;50.276;9.372;2023-03-05T04:57:50;4.30;79.80
49413;DHT22;35493;50.276;9.372;2023-03-05T05:00:24;4.30;79.30
49413;DHT22;35493;50.276;9.372;2023-03-05T05:02:58;4.30;79.70
49413;DHT22;35493;50.276;9.372;2023-03-05T05:05:31;4.30;78.80
49413;DHT22;35493;50.276;9.372;2023-03-05T05:08:04;4.30;78.50
49413;DHT22;35493;50.276;9.372;2023-03-05T05:10:45;4.30;78.20
49413;DHT22;35493;50.276;9.372;2023-03-05T05:13:19;4.30;78.50
49413;DHT22;35493;50.276;9.372;2023-03-05T05:15:53;4.30;78.10
49413;DHT22;35493;50.276;9.372;2023-03-05T05:18:27;4.20;78.10
49413;DHT22;35493;50.276;9.372;2023-03-05T05:21:00;4.20;77.90
49413;DHT22;35493;50.276;9.372;2023-03-05T05:23:27;4.30;78.50
49413;DHT22;35493;50.276;9.372;2023-03-05T05:26:02;4.30;78.00
49413;DHT22;35493;50.276;9.372;2023-03-05T05:28:36;4.20;77.90
49413;DHT22;35493;50.276;9.372;2023-03-05T05:31:11;4.20;77.30
49413;DHT22;35493;50.276;9.372;2023-03-05T05:33:45;4.20;77.30
49413;DHT22;35493;50.276;9.372;2023-03-05T05:36:18;4.20;77.40
49413;DHT22;35493;50.276;9.372;2023-03-05T05:38:53;4.20;77.30
49413;DHT22;35493;50.276;9.372;2023-03-05T05:41:26;4.20;77.10
49413;DHT22;35493;50.276;9.372;2023-03-05T05:44:00;4.20;76.80
49413;DHT22;35493;50.276;9.372;2023-03-05T05:46:34;4.20;76.50
49413;DHT22;35493;50.276;9.372;2023-03-05T05:49:07;4.20;76.70
49413;DHT22;35493;50.276;9.372;2023-03-05T05:51:40;4.20;76.20
49413;DHT22;35493;50.276;9.372;2023-03-05T05:54:14;4.20;76.60
49413;DHT22;35493;50.276;9.372;2023-03-05T05:56:48;4.20;76.10
49413;DHT22;35493;50.276;9.372;2023-03-05T05:59:22;4.20;75.80
49413;DHT22;35493;50.276;9.372;2023-03-05T06:01:56;4.20;75.80
49413;DHT22;35493;50.276;9.372;2023-03-05T06:04:29;4.20;75.80
49413;DHT22;35493;50.276;9.372;2023-03-05T06:07:09;4.20;75.80
49413;DHT22;35493;50.276;9.372;2023-03-05T06:09:42;4.10;75.90
49413;DHT22;35493;50.276;9.372;2023-03-05T06:12:16;4.20;76.10
49413;DHT22;35493;50.276;9.372;2023-03-05T06:14:50;4.10;75.30
49413;DHT22;35493;50.276;9.372;2023-03-05T06:17:25;4.10;75.90
49413;DHT22;35493;50.276;9.372;2023-03-05T06:20:00;4.00;76.20
49413;DHT22;35493;50.276;9.372;2023-03-05T06:22:36;4.00;76.20
49413;DHT22;35493;50.276;9.372;2023-03-05T06:25:09;4.00;76.50
49413;DHT22;35493;50.276;9.372;2023-03-05T06:27:43;4.10;76.40
49413;DHT22;35493;50.276;9.372;2023-03-05T06:30:18;4.00;77.00
49413;DHT22;35493;50.276;9.372;2023-03-05T06:32:51;4.00;77.20
49413;DHT22;35493;50.276;9.372;2023-03-05T06:35:24;4.00;77.10
49413;DHT22;35493;50.276;9.372;2023-03-05T06:37:57;4.00;77.50
49413;DHT22;35493;50.276;9.372;2023-03-05T06:40:30;4.00;77.80
49413;DHT22;35493;50.276;9.372;2023-03-05T06:43:03;4.00;78.10
49413;DHT22;35493;50.276;9.372;2023-03-05T06:45:37;4.00;78.40
49413;DHT22;35493;50.276;9.372;2023-03-05T06:48:11;4.00;78.50
49413;DHT22;35493;50.276;9.372;2023-03-05T06:50:44;4.00;78.60
49413;DHT22;35493;50.276;9.372;2023-03-05T06:53:17;3.90;78.80
49413;DHT22;35493;50.276;9.372;2023-03-05T06:55:50;3.90;79.00
49413;DHT22;35493;50.276;9.372;2023-03-05T06:58:24;3.90;79.30
49413;DHT22;35493;50.276;9.372;2023-03-05T07:00:58;3.90;79.40
49413;DHT22;35493;50.276;9.372;2023-03-05T07:03:32;3.90;79.50
49413;DHT22;35493;50.276;9.372;2023-03-05T07:06:07;3.90;79.50
49413;DHT22;35493;50.276;9.372;2023-03-05T07:08:41;4.00;79.50
49413;DHT22;35493;50.276;9.372;2023-03-05T07:11:22;4.00;79.60
49413;DHT22;35493;50.276;9.372;2023-03-05T07:13:56;4.00;79.60
49413;DHT22;35493;50.276;9.372;2023-03-05T07:16:33;4.00;79.90
49413;DHT22;35493;50.276;9.372;2023-03-05T07:19:06;4.00;79.80
49413;DHT22;35493;50.276;9.372;2023-03-05T07:21:42;3.90;79.60
49413;DHT22;35493;50.276;9.372;2023-03-05T07:24:15;4.00;79.60
49413;DHT22;35493;50.276;9.372;2023-03-05T07:26:48;4.00;79.60
49413;DHT22;35493;50.276;9.372;2023-03-05T07:29:21;4.00;79.70
49413;DHT22;35493;50.276;9.372;2023-03-05T07:31:56;4.00;79.90
49413;DHT22;35493;50.276;9.372;2023-03-05T07:34:30;4.00;79.90
49413;DHT22;35493;50.276;9.372;2023-03-05T07:37:04;4.00;80.10
49413;DHT22;35493;50.276;9.372;2023-03-05T07:39:38;4.00;80.10
49413;DHT22;35493;50.276;9.372;2023-03-05T07:42:11;4.10;80.20
49413;DHT22;35493;50.276;9.372;2023-03-05T07:44:57;4.10;80.40
49413;DHT22;35493;50.276;9.372;2023-03-05T07:47:32;4.10;80.40
49413;DHT22;35493;50.276;9.372;2023-03-05T07:50:07;4.20;80.50
49413;DHT22;35493;50.276;9.372;2023-03-05T07:52:41;4.10;80.40
49413;DHT22;35493;50.276;9.372;2023-03-05T07:55:14;4.20;80.30
49413;DHT22;35493;50.276;9.372;2023-03-05T07:57:48;4.20;80.00
49413;DHT22;35493;50.276;9.372;2023-03-05T08:00:21;4.20;79.80
49413;DHT22;35493;50.276;9.372;2023-03-05T08:02:57;4.20;79.30
49413;DHT22;35493;50.276;9.372;2023-03-05T08:05:30;4.30;79.10
49413;DHT22;35493;50.276;9.372;2023-03-05T08:08:11;4.30;78.80
49413;DHT22;35493;50.276;9.372;2023-03-05T08:10:44;4.30;78.60
49413;DHT22;35493;50.276;9.372;2023-03-05T08:13:17;4.30;78.30
49413;DHT22;35493;50.276;9.372;2023-03-05T08:15:50;4.40;78.40
49413;DHT22;35493;50.276;9.372;2023-03-05T08:18:24;4.40;78.30
49413;DHT22;35493;50.276;9.372;2023-03-05T08:20:58;4.40;78.10
49413;DHT22;35493;50.276;9.372;2023-03-05T08:23:31;4.40;78.20
49413;DHT22;35493;50.276;9.372;2023-03-05T08:26:12;4.40;78.00
49413;DHT22;35493;50.276;9.372;2023-03-05T08:28:45;4.40;77.70
49413;DHT22;35493;50.276;9.372;2023-03-05T08:31:19;4.40;77.50
49413;DHT22;35493;50.276;9.372;2023-03-05T08:33:55;4.50;77.50
49413;DHT22;35493;50.276;9.372;2023-03-05T08:36:29;4.40;76.90
49413;DHT22;35493;50.276;9.372;2023-03-05T08:39:03;4.50;76.80
49413;DHT22;35493;50.276;9.372;2023-03-05T08:41:37;4.50;76.70
49413;DHT22;35493;50.276;9.372;2023-03-05T08:44:11;4.50;77.00
49413;DHT22;35493;50.276;9.372;2023-03-05T08:46:38;4.50;76.50
49413;DHT22;35493;50.276;9.372;2023-03-05T08:49:13;4.50;76.50
49413;DHT22;35493;50.276;9.372;2023-03-05T08:51:47;4.60;76.40
49413;DHT22;35493;50.276;9.372;2023-03-05T08:54:20;4.60;76.20
49413;DHT22;35493;50.276;9.372;2023-03-05T08:56:53;4.60;76.50
49413;DHT22;35493;50.276;9.372;2023-03-05T08:59:20;4.60;76.30
49413;DHT22;35493;50.276;9.372;2023-03-05T09:01:53;4.60;76.00
49413;DHT22;35493;50.276;9.372;2023-03-05T09:04:27;4.70;75.80
49413;DHT22;35493;50.276;9.372;2023-03-05T09:07:01;4.70;76.00
49413;DHT22;35493;50.276;9.372;2023-03-05T09:09:41;4.70;75.60
49413;DHT22;35493;50.276;9.372;2023-03-05T09:12:14;4.70;75.40
49413;DHT22;35493;50.276;9.372;2023-03-05T09:14:47;4.80;75.40
49413;DHT22;35493;50.276;9.372;2023-03-05T09:17:20;4.80;75.30
49413;DHT22;35493;50.276;9.372;2023-03-05T09:19:55;4.90;75.50
49413;DHT22;35493;50.276;9.372;2023-03-05T09:22:29;5.00;75.10
49413;DHT22;35493;50.276;9.372;2023-03-05T09:25:02;5.00;74.90
49413;DHT22;35493;50.276;9.372;2023-03-05T09:27:37;5.10;74.90
49413;DHT22;35493;50.276;9.372;2023-03-05T09:30:11;5.20;74.80
49413;DHT22;35493;50.276;9.372;2023-03-05T09:32:39;5.20;74.90
49413;DHT22;35493;50.276;9.372;2023-03-05T09:35:13;5.10;74.50
49413;DHT22;35493;50.276;9.372;2023-03-05T09:37:40;5.20;74.40
49413;DHT22;35493;50.276;9.372;2023-03-05T09:40:16;5.20;74.50
49413;DHT22;35493;50.276;9.372;2023-03-05T09:43:02;5.20;74.60
49413;DHT22;35493;50.276;9.372;2023-03-05T09:45:40;5.20;74.30
49413;DHT22;35493;50.276;9.372;2023-03-05T09:48:19;5.30;74.60
49413;DHT22;35493;50.276;9.372;2023-03-05T09:51:00;5.30;74.30
49413;DHT22;35493;50.276;9.372;2023-03-05T09:53:36;5.40;74.40
49413;DHT22;35493;50.276;9.372;2023-03-05T09:56:12;5.40;74.20
49413;DHT22;35493;50.276;9.372;2023-03-05T09:58:50;5.40;74.20
49413;DHT22;35493;50.276;9.372;2023-03-05T10:01:19;5.40;74.10
49413;DHT22;35493;50.276;9.372;2023-03-05T10:03:56;5.40;74.10
49413;DHT22;35493;50.276;9.372;2023-03-05T10:06:34;5.40;73.90
49413;DHT22;35493;50.276;9.372;2023-03-05T10:09:33;5.40;73.90
49413;DHT22;35493;50.276;9.372;2023-03-05T10:12:22;5.50;74.00
49413;DHT22;35493;50.276;9.372;2023-03-05T10:14:58;5.50;73.90
49413;DHT22;35493;50.276;9.372;2023-03-05T10:17:45;5.50;74.10
49413;DHT22;35493;50.276;9.372;2023-03-05T10:23:33;5.70;74.00
49413;DHT22;35493;50.276;9.372;2023-03-05T10:26:16;5.70;74.00
49413;DHT22;35493;50.276;9.372;2023-03-05T10:29:00;5.70;73.80
49413;DHT22;35493;50.276;9.372;2023-03-05T10:31:48;5.70;73.50
49413;DHT22;35493;50.276;9.372;2023-03-05T10:37:45;5.60;72.90
49413;DHT22;35493;50.276;9.372;2023-03-05T10:40:35;5.50;72.80
49413;DHT22;35493;50.276;9.372;2023-03-05T10:43:18;5.60;72.90
49413;DHT22;35493;50.276;9.372;2023-03-05T10:45:53;5.60;72.70
49413;DHT22;35493;50.276;9.372;2023-03-05T10:48:32;5.50;72.10
49413;DHT22;35493;50.276;9.372;2023-03-05T10:51:12;5.50;71.90
49413;DHT22;35493;50.276;9.372;2023-03-05T10:53:53;5.50;72.00
49413;DHT22;35493;50.276;9.372;2023-03-05T10:56:28;5.50;71.40
49413;DHT22;35493;50.276;9.372;2023-03-05T10:59:02;5.50;71.10
49413;DHT22;35493;50.276;9.372;2023-03-05T11:01:35;5.50;71.90
49413;DHT22;35493;50.276;9.372;2023-03-05T11:04:25;5.40;70.90
49413;DHT22;35493;50.276;9.372;2023-03-05T11:06:58;5.50;71.60
49413;DHT22;35493;50.276;9.372;2023-03-05T11:10:01;5.40;71.40
49413;DHT22;35493;50.276;9.372;2023-03-05T11:12:37;5.50;71.00
49413;DHT22;35493;50.276;9.372;2023-03-05T11:15:27;5.60;71.10
49413;DHT22;35493;50.276;9.372;2023-03-05T11:18:14;5.70;71.10
49413;DHT22;35493;50.276;9.372;2023-03-05T11:20:48;5.70;70.30
49413;DHT22;35493;50.276;9.372;2023-03-05T11:23:23;5.70;70.10
49413;DHT22;35493;50.276;9.372;2023-03-05T11:26:00;5.70;69.30
49413;DHT22;35493;50.276;9.372;2023-03-05T11:28:36;5.70;69.50
49413;DHT22;35493;50.276;9.372;2023-03-05T11:31:20;5.70;69.40
49413;DHT22;35493;50.276;9.372;2023-03-05T11:33:59;5.80;68.80
49413;DHT22;35493;50.276;9.372;2023-03-05T11:36:33;5.80;68.80
49413;DHT22;35493;50.276;9.372;2023-03-05T11:39:14;5.90;68.90
49413;DHT22;35493;50.276;9.372;2023-03-05T11:41:50;5.90;68.50
49413;DHT22;35493;50.276;9.372;2023-03-05T11:44:27;6.00;69.00
49413;DHT22;35493;50.276;9.372;2023-03-05T11:47:03;6.10;68.70
49413;DHT22;35493;50.276;9.372;2023-03-05T11:49:44;6.20;68.80
49413;DHT22;35493;50.276;9.372;2023-03-05T11:52:20;6.20;68.80
49413;DHT22;35493;50.276;9.372;2023-03-05T11:54:59;6.20;68.60
49413;DHT22;35493;50.276;9.372;2023-03-05T11:57:40;6.20;68.50
49413;DHT22;35493;50.276;9.372;2023-03-05T12:00:18;6.40;67.90
49413;DHT22;35493;50.276;9.372;2023-03-05T12:02:55;6.40;67.70
49413;DHT22;35493;50.276;9.372;2023-03-05T12:05:30;6.50;67.30
49413;DHT22;35493;50.276;9.372;2023-03-05T12:08:05;6.50;67.10
49413;DHT22;35493;50.276;9.372;2023-03-05T12:10:57;6.50;67.20
49413;DHT22;35493;50.276;9.372;2023-03-05T12:13:34;6.50;67.70
49413;DHT22;35493;50.276;9.372;2023-03-05T12:16:18;6.40;67.20
49413;DHT22;35493;50.276;9.372;2023-03-05T12:19:01;6.40;67.50
49413;DHT22;35493;50.276;9.372;2023-03-05T12:21:42;6.40;67.50
49413;DHT22;35493;50.276;9.372;2023-03-05T12:24:36;6.40;67.40
49413;DHT22;35493;50.276;9.372;2023-03-05T12:27:13;6.40;67.50
49413;DHT22;35493;50.276;9.372;2023-03-05T12:29:47;6.30;67.30
49413;DHT22;35493;50.276;9.372;2023-03-05T12:35:37;6.30;67.40
49413;DHT22;35493;50.276;9.372;2023-03-05T12:38:28;6.20;66.80
49413;DHT22;35493;50.276;9.372;2023-03-05T12:44:19;6.20;67.00
49413;DHT22;35493;50.276;9.372;2023-03-05T12:47:14;6.30;66.90
49413;DHT22;35493;50.276;9.372;2023-03-05T12:49:48;6.30;66.60
49413;DHT22;35493;50.276;9.372;2023-03-05T12:52:24;6.30;66.50
49413;DHT22;35493;50.276;9.372;2023-03-05T12:55:21;6.30;67.30
49413;DHT22;35493;50.276;9.372;2023-03-05T12:57:57;6.30;67.10
49413;DHT22;35493;50.276;9.372;2023-03-05T13:00:37;6.40;67.10
49413;DHT22;35493;50.276;9.372;2023-03-05T13:03:16;6.40;67.00
49413;DHT22;35493;50.276;9.372;2023-03-05T13:05:53;6.30;66.80
49413;DHT22;35493;50.276;9.372;2023-03-05T13:08:35;6.30;67.30
49413;DHT22;35493;50.276;9.372;2023-03-05T13:11:17;6.30;67.00
49413;DHT22;35493;50.276;9.372;2023-03-05T13:13:52;6.30;66.80
49413;DHT22;35493;50.276;9.372;2023-03-05T13:16:34;6.20;67.20
49413;DHT22;35493;50.276;9.372;2023-03-05T13:19:15;6.20;66.90
49413;DHT22;35493;50.276;9.372;2023-03-05T13:21:57;6.20;67.90
49413;DHT22;35493;50.276;9.372;2023-03-05T13:24:31;6.20;67.20
49413;DHT22;35493;50.276;9.372;2023-03-05T13:27:18;6.20;67.40
49413;DHT22;35493;50.276;9.372;2023-03-05T13:29:52;6.20;66.70
49413;DHT22;35493;50.276;9.372;2023-03-05T13:32:28;6.20;67.20
49413;DHT22;35493;50.276;9.372;2023-03-05T13:35:02;6.20;66.90
49413;DHT22;35493;50.276;9.372;2023-03-05T13:37:44;6.20;67.20
49413;DHT22;35493;50.276;9.372;2023-03-05T13:40:21;6.20;67.70
49413;DHT22;35493;50.276;9.372;2023-03-05T13:43:08;6.20;67.60
49413;DHT22;35493;50.276;9.372;2023-03-05T13:45:41;6.20;67.60
49413;DHT22;35493;50.276;9.372;2023-03-05T13:48:18;6.30;67.50
49413;DHT22;35493;50.276;9.372;2023-03-05T13:50:54;6.30;67.70
49413;DHT22;35493;50.276;9.372;2023-03-05T13:53:29;6.40;67.30
49413;DHT22;35493;50.276;9.372;2023-03-05T13:56:06;6.40;67.40
49413;DHT22;35493;50.276;9.372;2023-03-05T13:58:47;6.40;67.20
49413;DHT22;35493;50.276;9.372;2023-03-05T14:01:28;6.40;67.30
49413;DHT22;35493;50.276;9.372;2023-03-05T14:04:06;6.40;67.80
49413;DHT22;35493;50.276;9.372;2023-03-05T14:06:46;6.40;67.50
49413;DHT22;35493;50.276;9.372;2023-03-05T14:09:22;6.40;67.20
49413;DHT22;35493;50.276;9.372;2023-03-05T14:12:14;6.40;67.20
49413;DHT22;35493;50.276;9.372;2023-03-05T14:14:53;6.30;67.20
49413;DHT22;35493;50.276;9.372;2023-03-05T14:17:38;6.30;66.80
49413;DHT22;35493;50.276;9.372;2023-03-05T14:20:22;6.30;66.70
49413;DHT22;35493;50.276;9.372;2023-03-05T14:22:58;6.20;67.30
49413;DHT22;35493;50.276;9.372;2023-03-05T14:25:34;6.20;67.30
49413;DHT22;35493;50.276;9.372;2023-03-05T14:28:26;6.10;67.10
49413;DHT22;35493;50.276;9.372;2023-03-05T14:31:00;6.10;67.20
49413;DHT22;35493;50.276;9.372;2023-03-05T14:33:34;6.10;67.60
49413;DHT22;35493;50.276;9.372;2023-03-05T14:36:08;6.00;67.60
49413;DHT22;35493;50.276;9.372;2023-03-05T14:38:42;6.10;67.90
49413;DHT22;35493;50.276;9.372;2023-03-05T14:41:26;6.10;68.00
49413;DHT22;35493;50.276;9.372;2023-03-05T14:44:11;6.00;67.50
49413;DHT22;35493;50.276;9.372;2023-03-05T14:46:47;6.00;67.10
49413;DHT22;35493;50.276;9.372;2023-03-05T14:49:21;5.90;67.50
49413;DHT22;35493;50.276;9.372;2023-03-05T14:51:54;5.90;68.00
49413;DHT22;35493;50.276;9.372;2023-03-05T14:54:35;5.90;67.90
49413;DHT22;35493;50.276;9.372;2023-03-05T14:57:14;5.90;67.90
49413;DHT22;35493;50.276;9.372;2023-03-05T14:59:49;5.90;67.70
49413;DHT22;35493;50.276;9.372;2023-03-05T15:02:24;5.90;68.00
49413;DHT22;35493;50.276;9.372;2023-03-05T15:04:58;5.90;68.30
49413;DHT22;35493;50.276;9.372;2023-03-05T15:07:38;5.90;68.30
49413;DHT22;35493;50.276;9.372;2023-03-05T15:10:14;5.90;68.40
49413;DHT22;35493;50.276;9.372;2023-03-05T15:12:47;5.80;68.90
49413;DHT22;35493;50.276;9.372;2023-03-05T15:15:24;5.80;68.90
49413;DHT22;35493;50.276;9.372;2023-03-05T15:17:50;5.80;68.90
49413;DHT22;35493;50.276;9.372;2023-03-05T15:20:29;5.80;69.20
49413;DHT22;35493;50.276;9.372;2023-03-05T15:23:03;5.80;69.00
49413;DHT22;35493;50.276;9.372;2023-03-05T15:25:36;5.80;69.20
49413;DHT22;35493;50.276;9.372;2023-03-05T15:28:09;5.80;69.40
49413;DHT22;35493;50.276;9.372;2023-03-05T15:30:46;5.80;69.60
49413;DHT22;35493;50.276;9.372;2023-03-05T15:33:19;5.70;69.60
49413;DHT22;35493;50.276;9.372;2023-03-05T15:35:53;5.80;70.10
49413;DHT22;35493;50.276;9.372;2023-03-05T15:38:27;5.80;69.70
49413;DHT22;35493;50.276;9.372;2023-03-05T15:41:00;5.80;69.70
49413;DHT22;35493;50.276;9.372;2023-03-05T15:43:33;5.80;69.50
49413;DHT22;35493;50.276;9.372;2023-03-05T15:46:08;5.80;69.90
49413;DHT22;35493;50.276;9.372;2023-03-05T15:48:42;5.80;69.60
49413;DHT22;35493;50.276;9.372;2023-03-05T15:51:20;5.70;69.50
49413;DHT22;35493;50.276;9.372;2023-03-05T15:53:53;5.80;69.80
49413;DHT22;35493;50.276;9.372;2023-03-05T15:56:26;5.80;69.70
49413;DHT22;35493;50.276;9.372;2023-03-05T15:58:59;5.80;70.20
49413;DHT22;35493;50.276;9.372;2023-03-05T16:01:35;5.70;70.10
49413;DHT22;35493;50.276;9.372;2023-03-05T16:04:08;5.70;70.10
49413;DHT22;35493;50.276;9.372;2023-03-05T16:06:42;5.70;69.90
49413;DHT22;35493;50.276;9.372;2023-03-05T16:09:17;5.70;70.40
49413;DHT22;35493;50.276;9.372;2023-03-05T16:11:58;5.70;70.20
49413;DHT22;35493;50.276;9.372;2023-03-05T16:14:32;5.70;70.40
49413;DHT22;35493;50.276;9.372;2023-03-05T16:17:07;5.70;70.30
49413;DHT22;35493;50.276;9.372;2023-03-05T16:19:42;5.70;70.40
49413;DHT22;35493;50.276;9.372;2023-03-05T16:22:16;5.70;70.50
49413;DHT22;35493;50.276;9.372;2023-03-05T16:24:50;5.70;70.50
49413;DHT22;35493;50.276;9.372;2023-03-05T16:27:23;5.70;70.30
49413;DHT22;35493;50.276;9.372;2023-03-05T16:29:58;5.70;70.40
49413;DHT22;35493;50.276;9.372;2023-03-05T16:32:33;5.70;70.50
49413;DHT22;35493;50.276;9.372;2023-03-05T16:35:07;5.60;70.60
49413;DHT22;35493;50.276;9.372;2023-03-05T16:37:49;5.70;70.60
49413;DHT22;35493;50.276;9.372;2023-03-05T16:40:22;5.60;70.50
49413;DHT22;35493;50.276;9.372;2023-03-05T16:42:56;5.60;70.60
49413;DHT22;35493;50.276;9.372;2023-03-05T16:45:29;5.60;70.50
49413;DHT22;35493;50.276;9.372;2023-03-05T16:48:04;5.50;70.70
49413;DHT22;35493;50.276;9.372;2023-03-05T16:50:37;5.50;70.90
49413;DHT22;35493;50.276;9.372;2023-03-05T16:53:10;5.50;71.30